createdAt,value
2023-04-19T00:01:03.186Z,4.43
2023-04-19T00:03:30.797Z,4.28
2023-04-19T00:06:00.357Z,3.65
2023-04-19T00:08:27.077Z,3.50
2023-04-19T00:10:53.586Z,2.63
2023-04-19T00:13:20.615Z,3.88
2023-04-19T00:15:47.362Z,3.30
2023-04-19T00:18:13.786Z,3.38
2023-04-19T00:20:40.276Z,3.30
2023-04-19T00:23:06.820Z,3.10
2023-04-19T00:25:34.757Z,2.78
2023-04-19T00:28:01.410Z,2.80
2023-04-19T00:30:27.891Z,3.15
2023-04-19T00:32:54.413Z,3.10
2023-04-19T00:35:21.166Z,3.63
2023-04-19T00:37:47.683Z,3.25
2023-04-19T00:40:14.543Z,3.25
2023-04-19T00:42:41.051Z,2.90
2023-04-19T00:45:08.020Z,2.97
2023-04-19T00:47:35.971Z,3.28
2023-04-19T00:50:04.520Z,2.80
2023-04-19T00:52:33.251Z,2.80
2023-04-19T00:55:00.217Z,3.42
2023-04-19T00:57:27.143Z,3.80
2023-04-19T00:59:54.460Z,2.95
2023-04-19T01:02:22.369Z,3.53
2023-04-19T01:04:48.988Z,3.15
2023-04-19T01:07:15.632Z,3.13
2023-04-19T01:09:44.023Z,3.90
2023-04-19T01:12:10.665Z,3.53
2023-04-19T01:14:37.301Z,4.20
2023-04-19T01:17:03.733Z,2.97
2023-04-19T01:19:30.310Z,3.40
2023-04-19T01:21:58.375Z,3.40
2023-04-19T01:24:24.908Z,2.38
2023-04-19T01:26:51.465Z,2.75
2023-04-19T01:29:18.834Z,2.40
2023-04-19T01:31:49.227Z,2.90
2023-04-19T01:34:15.954Z,2.70
2023-04-19T01:36:42.563Z,3.03
2023-04-19T01:39:09.112Z,3.10
2023-04-19T01:41:35.502Z,2.70
2023-04-19T01:44:02.021Z,2.85
2023-04-19T01:46:28.590Z,2.40
2023-04-19T01:48:55.092Z,3.03
2023-04-19T01:51:24.464Z,3.90
2023-04-19T01:53:53.633Z,3.72
2023-04-19T01:56:21.869Z,3.50
2023-04-19T01:58:48.374Z,2.80
2023-04-19T02:01:15.019Z,3.40
2023-04-19T02:03:42.095Z,3.50
2023-04-19T02:06:13.091Z,3.47
2023-04-19T02:08:40.378Z,3.05
2023-04-19T02:11:11.201Z,2.93
2023-04-19T02:13:37.815Z,3.03
2023-04-19T02:16:05.908Z,2.72
2023-04-19T02:18:33.506Z,2.97
2023-04-19T02:21:00.477Z,2.78
2023-04-19T02:23:27.011Z,2.87
2023-04-19T02:25:53.685Z,3.53
2023-04-19T02:28:20.267Z,2.70
2023-04-19T02:30:46.786Z,3.10
2023-04-19T02:33:13.431Z,2.67
2023-04-19T02:35:39.863Z,2.77
2023-04-19T02:38:06.377Z,3.33
2023-04-19T02:40:33.133Z,2.65
2023-04-19T02:42:59.606Z,2.45
2023-04-19T02:45:26.082Z,3.72
2023-04-19T02:47:52.545Z,3.63
2023-04-19T02:50:19.260Z,3.22
2023-04-19T02:52:45.769Z,3.20
2023-04-19T02:55:12.276Z,3.20
2023-04-19T02:57:38.787Z,3.55
2023-04-19T03:00:06.429Z,2.50
2023-04-19T03:02:33.090Z,3.20
2023-04-19T03:04:59.918Z,3.58
2023-04-19T03:07:26.608Z,3.13
2023-04-19T03:09:53.206Z,3.47
2023-04-19T03:12:19.704Z,3.17
2023-04-19T03:14:46.262Z,3.25
2023-04-19T03:17:12.863Z,3.53
2023-04-19T03:19:39.382Z,3.15
2023-04-19T03:22:05.891Z,2.97
2023-04-19T03:24:33.574Z,3.00
2023-04-19T03:27:03.367Z,3.03
2023-04-19T03:29:29.886Z,3.08
2023-04-19T03:31:56.444Z,2.92
2023-04-19T03:34:22.962Z,2.80
2023-04-19T03:36:49.466Z,3.13
2023-04-19T03:39:16.086Z,2.97
2023-04-19T03:41:42.484Z,3.63
2023-04-19T03:44:08.957Z,2.55
2023-04-19T03:46:35.462Z,3.58
2023-04-19T03:49:02.047Z,2.77
2023-04-19T03:51:28.597Z,2.35
2023-04-19T03:53:55.010Z,2.60
2023-04-19T03:56:21.524Z,2.97
2023-04-19T03:58:51.194Z,2.47
2023-04-19T04:01:21.261Z,3.67
2023-04-19T04:03:48.361Z,3.10
2023-04-19T04:06:15.339Z,2.67
2023-04-19T04:08:41.794Z,3.40
2023-04-19T04:11:08.302Z,2.60
2023-04-19T04:13:34.820Z,3.17
2023-04-19T04:16:01.439Z,2.80
2023-04-19T04:18:28.617Z,2.60
2023-04-19T04:20:55.617Z,3.42
2023-04-19T04:23:22.759Z,3.35
2023-04-19T04:25:58.024Z,3.03
2023-04-19T04:28:24.548Z,3.15
2023-04-19T04:30:51.927Z,2.58
2023-04-19T04:33:18.609Z,3.10
2023-04-19T04:35:45.081Z,3.47
2023-04-19T04:38:23.484Z,3.93
2023-04-19T04:40:55.768Z,3.38
2023-04-19T04:43:24.001Z,3.05
2023-04-19T04:45:50.589Z,3.75
2023-04-19T04:48:17.383Z,3.67
2023-04-19T04:50:44.274Z,3.53
2023-04-19T04:53:13.171Z,3.67
2023-04-19T04:55:39.860Z,4.97
2023-04-19T04:58:06.707Z,4.15
2023-04-19T05:00:33.827Z,2.88
2023-04-19T05:03:00.649Z,3.43
2023-04-19T05:05:27.267Z,3.50
2023-04-19T05:07:53.794Z,3.85
2023-04-19T05:10:20.315Z,4.18
2023-04-19T05:12:46.875Z,4.05
2023-04-19T05:15:13.285Z,4.80
2023-04-19T05:17:39.819Z,4.45
2023-04-19T05:20:06.831Z,5.53
2023-04-19T05:22:33.321Z,4.40
2023-04-19T05:24:59.756Z,5.57
2023-04-19T05:27:26.266Z,4.33
2023-04-19T05:29:53.639Z,4.75
2023-04-19T05:32:20.685Z,4.07
2023-04-19T05:34:47.193Z,4.10
2023-04-19T05:37:13.790Z,4.13
2023-04-19T05:39:42.349Z,3.50
2023-04-19T05:42:10.786Z,5.05
2023-04-19T05:44:37.254Z,5.65
2023-04-19T05:47:03.704Z,4.60
2023-04-19T05:49:30.293Z,5.47
2023-04-19T05:51:57.041Z,4.77
2023-04-19T05:54:23.811Z,6.45
2023-04-19T05:56:50.325Z,4.97
2023-04-19T05:59:16.892Z,5.25
2023-04-19T06:01:43.529Z,4.88
2023-04-19T06:04:10.304Z,5.27
2023-04-19T06:06:38.080Z,5.25
2023-04-19T06:09:04.858Z,4.55
2023-04-19T06:11:38.907Z,4.53
2023-04-19T06:14:14.704Z,5.57
2023-04-19T06:16:42.044Z,4.93
2023-04-19T06:19:08.535Z,5.72
2023-04-19T06:21:35.330Z,4.70
2023-04-19T06:24:02.418Z,5.43
2023-04-19T06:26:28.993Z,5.03
2023-04-19T06:28:55.811Z,4.90
2023-04-19T06:31:22.371Z,4.85
2023-04-19T06:33:48.916Z,4.60
2023-04-19T06:36:15.658Z,4.40
2023-04-19T06:38:44.496Z,4.93
2023-04-19T06:41:11.000Z,4.43
2023-04-19T06:43:37.595Z,4.18
2023-04-19T06:46:07.277Z,4.68
2023-04-19T06:48:34.922Z,4.20
2023-04-19T06:51:01.533Z,5.22
2023-04-19T06:53:28.222Z,4.83
2023-04-19T06:56:02.539Z,4.63
2023-04-19T06:58:29.125Z,4.18
2023-04-19T07:00:56.182Z,5.20
2023-04-19T07:03:22.947Z,5.18
2023-04-19T07:05:52.228Z,4.50
2023-04-19T07:08:18.868Z,4.20
2023-04-19T07:10:45.400Z,4.85
2023-04-19T07:13:12.100Z,5.53
2023-04-19T07:15:38.623Z,5.88
2023-04-19T07:18:05.556Z,5.67
2023-04-19T07:20:32.276Z,4.93
2023-04-19T07:22:59.580Z,5.15
2023-04-19T07:25:26.518Z,5.78
2023-04-19T07:27:54.604Z,5.18
2023-04-19T07:30:21.355Z,5.20
2023-04-19T07:32:48.416Z,5.93
2023-04-19T07:35:15.022Z,5.38
2023-04-19T07:37:42.706Z,5.70
2023-04-19T07:40:09.893Z,5.88
2023-04-19T07:42:36.533Z,6.30
2023-04-19T07:45:03.283Z,5.35
2023-04-19T07:47:29.860Z,4.85
2023-04-19T07:49:56.507Z,6.25
2023-04-19T07:52:23.030Z,6.32
2023-04-19T07:54:49.701Z,5.50
2023-04-19T07:57:16.282Z,6.13
2023-04-19T07:59:42.813Z,5.90
2023-04-19T08:02:09.362Z,5.93
2023-04-19T08:04:37.458Z,6.35
2023-04-19T08:07:04.863Z,6.00
2023-04-19T08:09:33.988Z,5.63
2023-04-19T08:12:01.362Z,5.25
2023-04-19T08:14:37.512Z,6.45
2023-04-19T08:17:23.946Z,7.72
2023-04-19T08:19:53.347Z,7.83
2023-04-19T08:22:21.594Z,6.88
2023-04-19T08:24:54.338Z,6.18
2023-04-19T08:27:21.761Z,7.10
2023-04-19T08:29:48.543Z,6.20
2023-04-19T08:32:15.041Z,5.73
2023-04-19T08:34:41.653Z,7.05
2023-04-19T08:37:08.137Z,6.68
2023-04-19T08:39:35.222Z,6.90
2023-04-19T08:42:24.625Z,5.53
2023-04-19T08:45:13.714Z,7.87
2023-04-19T08:47:58.622Z,6.20
2023-04-19T08:50:33.525Z,5.25
2023-04-19T08:53:20.204Z,5.90
2023-04-19T08:58:28.834Z,6.90
2023-04-19T09:01:12.793Z,7.28
2023-04-19T09:04:00.348Z,6.00
2023-04-19T09:06:29.850Z,6.85
2023-04-19T09:09:28.756Z,6.82
2023-04-19T09:12:00.447Z,6.73
2023-04-19T09:14:28.572Z,6.30
2023-04-19T09:17:13.094Z,6.00
2023-04-19T09:19:47.817Z,6.40
2023-04-19T09:22:14.871Z,5.75
2023-04-19T09:27:12.352Z,5.22
2023-04-19T09:29:39.052Z,5.43
2023-04-19T09:32:06.129Z,5.78
2023-04-19T09:34:32.991Z,6.20
2023-04-19T09:37:20.832Z,5.63
2023-04-19T09:39:59.280Z,5.75
2023-04-19T09:43:05.288Z,6.78
2023-04-19T09:45:45.800Z,6.32
2023-04-19T09:48:13.233Z,5.95
2023-04-19T09:51:04.622Z,5.47
2023-04-19T09:53:34.474Z,5.78
2023-04-19T09:56:02.988Z,6.03
2023-04-19T10:01:13.411Z,5.82
2023-04-19T10:03:44.535Z,5.13
2023-04-19T10:06:31.705Z,5.47
2023-04-19T10:09:06.401Z,7.03
2023-04-19T10:11:38.599Z,5.72
2023-04-19T10:14:07.666Z,5.85
2023-04-19T10:16:35.860Z,7.10
2023-04-19T10:19:12.289Z,8.55
2023-04-19T10:21:41.337Z,6.55
2023-04-19T10:24:09.783Z,7.25
2023-04-19T10:27:11.210Z,6.95
2023-04-19T10:30:07.528Z,5.63
2023-04-19T10:32:39.406Z,5.55
2023-04-19T10:35:10.050Z,8.77
2023-04-19T10:37:40.869Z,5.65
2023-04-19T10:40:08.644Z,8.50
2023-04-19T10:43:13.264Z,6.67
2023-04-19T10:45:39.955Z,6.50
2023-04-19T10:48:06.650Z,6.43
2023-04-19T10:50:58.702Z,6.22
2023-04-19T10:53:54.195Z,5.85
2023-04-19T10:56:42.595Z,6.40
2023-04-19T10:59:15.800Z,5.07
2023-04-19T11:01:44.853Z,5.50
2023-04-19T11:04:16.870Z,6.45
2023-04-19T11:06:55.335Z,6.53
2023-04-19T11:09:27.830Z,6.63
2023-04-19T11:11:58.582Z,6.43
2023-04-19T11:14:25.547Z,5.68
2023-04-19T11:16:52.090Z,6.50
2023-04-19T11:19:20.312Z,6.35
2023-04-19T11:21:47.660Z,7.03
2023-04-19T11:24:18.463Z,6.53
2023-04-19T11:26:46.183Z,6.90
2023-04-19T11:29:14.441Z,8.65
2023-04-19T11:31:44.152Z,6.90
2023-04-19T11:34:10.684Z,7.37
2023-04-19T11:36:47.802Z,6.30
2023-04-19T11:39:14.358Z,6.22
2023-04-19T11:41:40.952Z,6.47
2023-04-19T11:44:20.094Z,6.35
2023-04-19T11:47:02.708Z,6.57
2023-04-19T11:49:31.067Z,6.95
2023-04-19T11:52:05.504Z,8.40
2023-04-19T11:54:33.034Z,8.85
2023-04-19T11:57:04.928Z,7.45
2023-04-19T11:59:32.817Z,6.63
2023-04-19T12:02:11.269Z,7.05
2023-04-19T12:04:39.071Z,8.32
2023-04-19T12:07:06.973Z,5.95
2023-04-19T12:09:35.830Z,9.15
2023-04-19T12:12:03.125Z,7.67
2023-04-19T12:14:30.501Z,7.28
2023-04-19T12:17:11.924Z,7.88
2023-04-19T12:19:44.402Z,6.80
2023-04-19T12:22:22.035Z,6.72
2023-04-19T12:24:51.696Z,8.00
2023-04-19T12:27:18.368Z,7.70
2023-04-19T12:29:44.958Z,7.25
2023-04-19T12:32:11.607Z,7.35
2023-04-19T12:34:38.029Z,9.90
2023-04-19T12:37:04.566Z,7.07
2023-04-19T12:39:31.080Z,6.38
2023-04-19T12:41:57.604Z,7.18
2023-04-19T12:44:24.280Z,6.65
2023-04-19T12:46:50.773Z,6.85
2023-04-19T12:49:20.365Z,7.33
2023-04-19T12:51:47.606Z,7.38
2023-04-19T12:54:15.380Z,7.57
2023-04-19T12:56:41.908Z,6.95
2023-04-19T12:59:08.393Z,6.50
2023-04-19T13:01:34.987Z,6.53
2023-04-19T13:04:02.073Z,7.38
2023-04-19T13:06:28.715Z,6.38
2023-04-19T13:08:55.293Z,6.40
2023-04-19T13:11:23.478Z,6.70
2023-04-19T13:13:51.736Z,8.13
2023-04-19T13:16:18.659Z,5.75
2023-04-19T13:18:45.490Z,7.07
2023-04-19T13:21:12.081Z,6.05
2023-04-19T13:23:38.884Z,7.07
2023-04-19T13:26:06.132Z,6.57
2023-04-19T13:28:35.628Z,6.03
2023-04-19T13:31:03.695Z,6.90
2023-04-19T13:33:30.183Z,7.25
2023-04-19T13:35:56.750Z,7.38
2023-04-19T13:38:23.832Z,7.87
2023-04-19T13:40:50.827Z,7.05
2023-04-19T13:43:17.468Z,7.60
2023-04-19T13:45:43.953Z,8.27
2023-04-19T13:48:10.591Z,7.28
2023-04-19T13:50:37.352Z,7.10
2023-04-19T13:53:03.907Z,6.60
2023-04-19T13:55:30.458Z,7.47
2023-04-19T13:57:57.038Z,7.25
2023-04-19T14:00:24.590Z,7.60
2023-04-19T14:02:52.631Z,6.67
2023-04-19T14:05:19.445Z,7.18
2023-04-19T14:07:46.461Z,8.30
2023-04-19T14:10:13.002Z,6.70
2023-04-19T14:12:39.475Z,6.07
2023-04-19T14:15:06.394Z,5.83
2023-04-19T14:17:32.865Z,6.65
2023-04-19T14:20:01.750Z,8.07
2023-04-19T14:22:28.337Z,6.63
2023-04-19T14:24:54.960Z,6.07
2023-04-19T14:27:21.667Z,7.53
2023-04-19T14:29:48.175Z,8.02
2023-04-19T14:34:45.875Z,9.75
2023-04-19T14:37:12.416Z,9.43
2023-04-19T14:39:38.931Z,7.10
2023-04-19T14:42:05.618Z,12.70
2023-04-19T14:44:32.107Z,9.85
2023-04-19T14:46:58.637Z,7.90
2023-04-19T14:49:25.107Z,8.50
2023-04-19T14:51:52.372Z,7.33
2023-04-19T14:54:18.838Z,7.82
2023-04-19T14:56:45.422Z,6.00
2023-04-19T14:59:11.881Z,5.88
2023-04-19T15:01:38.448Z,6.20
2023-04-19T15:04:05.296Z,6.30
2023-04-19T15:06:32.318Z,6.00
2023-04-19T15:08:58.784Z,6.35
2023-04-19T15:11:25.368Z,7.70
2023-04-19T15:13:51.956Z,8.20
2023-04-19T15:16:18.779Z,7.40
2023-04-19T15:18:45.633Z,8.43
2023-04-19T15:21:12.088Z,8.13
2023-04-19T15:23:38.738Z,7.15
2023-04-19T15:26:05.316Z,9.43
2023-04-19T15:28:35.250Z,6.60
2023-04-19T15:31:04.198Z,5.43
2023-04-19T15:33:31.115Z,7.80
2023-04-19T15:35:58.496Z,6.45
2023-04-19T15:38:27.648Z,6.32
2023-04-19T15:40:55.756Z,7.77
2023-04-19T15:43:23.611Z,9.10
2023-04-19T15:45:50.656Z,8.98
2023-04-19T15:48:17.511Z,8.35
2023-04-19T15:50:44.366Z,7.53
2023-04-19T15:53:11.243Z,8.43
2023-04-19T15:55:38.926Z,9.25
2023-04-19T15:58:06.323Z,10.52
2023-04-19T16:00:34.208Z,9.15
2023-04-19T16:03:00.851Z,8.43
2023-04-19T16:05:27.544Z,8.43
2023-04-19T16:08:08.237Z,8.40
2023-04-19T16:10:35.020Z,9.60
2023-04-19T16:13:03.031Z,8.57
2023-04-19T16:15:29.953Z,11.73
2023-04-19T16:17:56.494Z,12.00
2023-04-19T16:20:23.080Z,11.30
2023-04-19T16:22:49.962Z,8.63
2023-04-19T16:25:17.163Z,10.40
2023-04-19T16:27:45.923Z,10.27
2023-04-19T16:30:14.510Z,10.20
2023-04-19T16:32:41.805Z,9.48
2023-04-19T16:35:09.356Z,9.85
2023-04-19T16:37:36.036Z,10.10
2023-04-19T16:40:08.039Z,9.05
2023-04-19T16:42:35.383Z,11.33
2023-04-19T16:45:02.172Z,9.43
2023-04-19T16:47:30.192Z,9.93
2023-04-19T16:50:00.634Z,12.35
2023-04-19T16:52:28.552Z,8.63
2023-04-19T16:54:55.194Z,10.13
2023-04-19T16:57:23.161Z,9.20
2023-04-19T16:59:50.361Z,10.20
2023-04-19T17:02:17.305Z,9.48
2023-04-19T17:04:44.262Z,10.10
2023-04-19T17:07:11.612Z,12.60
2023-04-19T17:09:38.114Z,9.15
2023-04-19T17:12:05.165Z,11.10
2023-04-19T17:14:34.546Z,13.02
2023-04-19T17:17:01.230Z,15.15
2023-04-19T17:19:27.834Z,14.43
2023-04-19T17:21:54.530Z,9.93
2023-04-19T17:24:21.094Z,9.48
2023-04-19T17:26:47.800Z,10.45
2023-04-19T17:29:14.270Z,13.38
2023-04-19T17:31:40.769Z,20.00
2023-04-19T17:34:07.344Z,12.55
2023-04-19T17:36:33.850Z,18.67
2023-04-19T17:39:00.417Z,12.10
2023-04-19T17:41:27.450Z,13.35
2023-04-19T17:43:54.019Z,16.00
2023-04-19T17:46:22.231Z,12.45
2023-04-19T17:48:48.810Z,13.07
2023-04-19T17:51:15.377Z,10.90
2023-04-19T17:53:41.881Z,14.25
2023-04-19T17:56:08.439Z,12.47
2023-04-19T17:58:36.457Z,10.98
2023-04-19T18:01:03.537Z,12.90
2023-04-19T18:03:30.932Z,14.65
2023-04-19T18:05:57.629Z,12.13
2023-04-19T18:08:24.411Z,11.53
2023-04-19T18:10:51.054Z,18.15
2023-04-19T18:13:17.550Z,19.08
2023-04-19T18:15:44.043Z,16.60
2023-04-19T18:18:10.630Z,16.17
2023-04-19T18:20:37.436Z,14.80
2023-04-19T18:23:04.114Z,15.40
2023-04-19T18:25:30.663Z,18.08
2023-04-19T18:27:57.367Z,19.63
2023-04-19T18:30:23.873Z,20.60
2023-04-19T18:32:50.533Z,14.83
2023-04-19T18:35:17.127Z,18.23
2023-04-19T18:37:44.029Z,19.17
2023-04-19T18:40:11.304Z,15.88
2023-04-19T18:42:37.790Z,17.88
2023-04-19T18:45:04.716Z,13.80
2023-04-19T18:47:31.571Z,12.10
2023-04-19T18:50:05.380Z,13.65
2023-04-19T18:52:35.665Z,14.43
2023-04-19T18:55:03.077Z,13.65
2023-04-19T18:57:34.180Z,12.87
2023-04-19T19:00:01.874Z,14.65
2023-04-19T19:02:34.289Z,16.33
2023-04-19T19:05:02.307Z,13.70
2023-04-19T19:07:36.807Z,12.68
2023-04-19T19:10:16.753Z,15.23
2023-04-19T19:12:46.134Z,17.48
2023-04-19T19:15:13.749Z,20.13
2023-04-19T19:17:40.752Z,13.55
2023-04-19T19:20:08.096Z,15.20
2023-04-19T19:22:35.178Z,20.00
2023-04-19T19:25:01.776Z,14.73
2023-04-19T19:27:28.340Z,13.20
2023-04-19T19:29:55.265Z,13.88
2023-04-19T19:32:22.036Z,13.43
2023-04-19T19:37:19.124Z,18.50
2023-04-19T19:39:46.627Z,16.95
2023-04-19T19:42:16.684Z,14.50
2023-04-19T19:44:43.512Z,12.45
2023-04-19T19:47:10.996Z,14.97
2023-04-19T19:52:07.454Z,15.85
2023-04-19T19:54:34.110Z,12.75
2023-04-19T19:57:56.568Z,16.52
2023-04-19T19:59:52.709Z,14.73
2023-04-19T20:02:26.648Z,18.17
2023-04-19T20:04:53.487Z,12.63
2023-04-19T20:09:50.928Z,10.98
2023-04-19T20:12:17.568Z,10.73
2023-04-19T20:14:44.099Z,10.32
2023-04-19T20:17:10.575Z,11.18
2023-04-19T20:19:37.437Z,12.60
2023-04-19T20:22:04.484Z,12.90
2023-04-19T20:24:31.835Z,11.33
2023-04-19T20:26:58.327Z,11.38
2023-04-19T20:29:24.966Z,14.35
2023-04-19T20:31:51.475Z,13.27
2023-04-19T20:34:18.246Z,12.38
2023-04-19T20:36:46.923Z,12.23
2023-04-19T20:39:13.865Z,12.98
2023-04-19T20:41:40.702Z,11.13
2023-04-19T20:44:07.507Z,12.05
2023-04-19T20:46:36.910Z,11.88
2023-04-19T20:49:03.361Z,11.63
2023-04-19T20:51:29.878Z,11.32
2023-04-19T20:53:56.373Z,11.80
2023-04-19T20:56:23.121Z,12.02
2023-04-19T20:58:49.834Z,11.57
2023-04-19T21:01:17.493Z,11.73
2023-04-19T21:03:44.852Z,12.00
2023-04-19T21:06:12.192Z,14.25
2023-04-19T21:08:38.932Z,9.43
2023-04-19T21:11:05.500Z,11.95
2023-04-19T21:13:32.680Z,11.33
2023-04-19T21:15:59.363Z,11.68
2023-04-19T21:18:27.717Z,10.27
2023-04-19T21:20:54.222Z,9.43
2023-04-19T21:23:20.768Z,12.15
2023-04-19T21:25:47.289Z,12.57
2023-04-19T21:28:13.864Z,13.85
2023-04-19T21:30:43.250Z,13.05
2023-04-19T21:33:10.218Z,12.07
2023-04-19T21:35:36.927Z,14.43
2023-04-19T21:38:03.518Z,12.43
2023-04-19T21:40:30.173Z,11.32
2023-04-19T21:42:57.055Z,12.43
2023-04-19T21:45:24.115Z,13.80
2023-04-19T21:47:51.166Z,12.43
2023-04-19T21:50:17.891Z,12.60
2023-04-19T21:52:44.432Z,12.88
2023-04-19T21:55:10.984Z,16.20
2023-04-19T21:57:38.378Z,12.27
2023-04-19T22:00:06.448Z,16.35
2023-04-19T22:02:33.030Z,13.73
2023-04-19T22:05:00.330Z,13.43
2023-04-19T22:07:30.594Z,14.68
2023-04-19T22:09:58.130Z,16.63
2023-04-19T22:12:24.760Z,13.02
2023-04-19T22:14:51.381Z,16.80
2023-04-19T22:17:21.427Z,16.50
2023-04-19T22:19:48.530Z,14.32
2023-04-19T22:22:15.203Z,11.82
2023-04-19T22:24:56.103Z,13.52
2023-04-19T22:27:24.534Z,17.17
2023-04-19T22:29:51.054Z,13.40
2023-04-19T22:32:17.630Z,15.93
2023-04-19T22:34:44.180Z,13.55
2023-04-19T22:37:10.865Z,13.75
2023-04-19T22:39:37.474Z,13.90
2023-04-19T22:42:04.243Z,10.68
2023-04-19T22:44:30.893Z,16.30
2023-04-19T22:46:58.298Z,15.43
2023-04-19T22:49:24.926Z,16.67
2023-04-19T22:51:51.449Z,13.77
2023-04-19T22:54:17.930Z,15.90
2023-04-19T22:56:44.414Z,18.30
2023-04-19T22:59:11.138Z,18.55
2023-04-19T23:01:37.720Z,17.85
2023-04-19T23:04:04.575Z,18.57
2023-04-19T23:06:32.425Z,20.27
2023-04-19T23:09:00.740Z,21.90
2023-04-19T23:11:29.938Z,18.67
2023-04-19T23:13:56.481Z,17.70
2023-04-19T23:16:24.412Z,15.93
2023-04-19T23:18:50.912Z,22.27
2023-04-19T23:21:17.449Z,19.42
2023-04-19T23:23:43.905Z,18.55
2023-04-19T23:26:10.353Z,23.35
2023-04-19T23:28:36.854Z,17.97
2023-04-19T23:31:03.325Z,21.52
2023-04-19T23:33:29.869Z,19.27
2023-04-19T23:35:56.294Z,23.05
2023-04-19T23:38:22.800Z,20.70
2023-04-19T23:40:49.256Z,19.90
2023-04-19T23:43:15.724Z,19.75
2023-04-19T23:45:42.149Z,19.98
2023-04-19T23:48:08.661Z,18.65
2023-04-19T23:50:35.209Z,22.10
2023-04-19T23:53:03.155Z,20.63
2023-04-19T23:55:29.816Z,24.25
2023-04-19T23:57:56.242Z,22.05
